Time;durP1;ratioP1;P1;durP2;ratioP2;P2;SDS_P1;SDS_P2;PMS_P1;PMS_P2;Temp;Humidity;BMP_temperature;BMP_pressure;BME280_temperature;BME280_humidity;BME280_pressure;Samples;Min_cycle;Max_cycle;Signal;HPM_P1;HPM_P2
2021/08/19 00:00:23;;;;;;;2.67;2.47;;;;;;;18.45;52.21;94949.81;5040070;28;20326;-79
2021/08/19 00:02:49;;;;;;;7.78;3.05;;;;;;;18.50;52.25;94957.66;5032108;28;20033;-79
2021/08/19 00:05:14;;;;;;;4.50;3.37;;;;;;;18.62;51.84;94959.13;5049317;23;20436;-79
2021/08/19 00:07:40;;;;;;;4.28;3.03;;;;;;;18.68;51.49;94960.69;5054267;28;20033;-79
2021/08/19 00:10:05;;;;;;;5.68;3.28;;;;;;;18.62;51.57;94959.13;5055968;28;20520;-79
2021/08/19 00:12:31;;;;;;;5.47;3.05;;;;;;;18.53;51.73;94957.09;5055518;28;20040;-79
2021/08/19 00:14:56;;;;;;;5.47;3.13;;;;;;;18.44;52.03;94955.34;5054211;28;20511;-79
2021/08/19 00:17:22;;;;;;;3.33;2.72;;;;;;;18.39;52.05;94958.03;5057307;28;20037;-77
2021/08/19 00:19:47;;;;;;;;;;;;;;;18.32;52.25;94960.97;5055544;28;20496;-78
2021/08/19 00:22:12;;;;;;;22.45;7.60;;;;;;;18.27;52.17;94958.41;5056192;28;20392;-79
2021/08/19 00:24:38;;;;;;;7.50;4.10;;;;;;;18.27;52.11;94961.03;5055136;28;20037;-79
2021/08/19 00:27:03;;;;;;;7.68;3.97;;;;;;;18.23;52.20;94962.66;5022295;28;20025;-78
2021/08/19 00:29:29;;;;;;;15.70;8.93;;;;;;;18.23;52.05;94962.66;5056141;28;20116;-79
2021/08/19 00:31:56;;;;;;;13.68;7.03;;;;;;;18.27;51.88;94958.41;5053827;28;20025;-77
2021/08/19 00:34:21;;;;;;;9.70;4.57;;;;;;;18.27;51.57;94969.72;5056006;28;20091;-79
2021/08/19 00:36:46;;;;;;;12.30;4.50;;;;;;;18.32;51.58;94965.47;5055934;28;20028;-79
2021/08/19 00:39:12;;;;;;;4.07;3.42;;;;;;;18.32;51.19;94966.25;5054619;28;20040;-79
2021/08/19 00:41:37;;;;;;;14.52;4.50;;;;;;;18.25;51.42;94960.53;5055973;28;20025;-79
2021/08/19 00:44:04;;;;;;;41.67;15.73;;;;;;;18.28;51.47;94965.22;5054588;28;20040;-79
2021/08/19 00:46:34;;;;;;;23.30;10.25;;;;;;;18.24;51.44;94969.47;5071872;28;20044;-79
2021/08/19 00:49:09;;;;;;;39.92;15.50;;;;;;;18.14;51.70;94961.66;5056646;28;20033;-79
2021/08/19 00:51:45;;;;;;;17.35;8.32;;;;;;;18.11;51.76;94962.22;5055186;28;20054;-79
2021/08/19 00:54:18;;;;;;;13.77;6.95;;;;;;;18.04;51.56;94959.88;5039059;28;20096;-79
2021/08/19 00:56:44;;;;;;;19.98;9.32;;;;;;;17.97;51.47;94965.47;5056407;28;20072;-79
2021/08/19 00:59:10;;;;;;;79.20;31.08;;;;;;;17.92;51.43;94962.88;5021273;28;20061;-79
2021/08/19 01:01:36;;;;;;;46.10;21.48;;;;;;;17.91;51.43;94966.56;5052808;28;20121;-79
2021/08/19 01:04:02;;;;;;;25.13;10.02;;;;;;;17.90;51.49;94966.84;5055260;28;20041;-78
2021/08/19 01:06:27;;;;;;;7.35;3.97;;;;;;;17.85;51.46;94969.47;5054445;28;20032;-78
2021/08/19 01:08:54;;;;;;;7.72;4.15;;;;;;;17.77;51.47;94960.34;5051319;28;20033;-78
2021/08/19 01:11:19;;;;;;;11.00;3.58;;;;;;;17.78;51.57;94961.91;5034415;28;20065;-79
2021/08/19 01:13:45;;;;;;;8.45;3.78;;;;;;;17.75;51.55;94961.66;5052936;28;20040;-79
2021/08/19 01:16:11;;;;;;;22.20;9.95;;;;;;;17.67;51.43;94955.09;5034850;28;20029;-78
2021/08/19 01:18:41;;;;;;;7.35;4.63;;;;;;;17.64;51.51;94945.13;5054995;28;20039;-78
2021/08/19 01:21:07;;;;;;;5.70;3.55;;;;;;;17.58;51.74;94946.22;5054129;28;20037;-78
2021/08/19 01:23:32;;;;;;;5.45;4.05;;;;;;;17.62;51.83;94949.88;5053048;28;20044;-78
2021/08/19 01:25:58;;;;;;;10.88;4.65;;;;;;;17.61;51.57;94948.31;5053492;28;20033;-78
2021/08/19 01:28:23;;;;;;;7.57;4.18;;;;;;;17.56;51.86;94950.94;5053948;28;20029;-79
2021/08/19 01:30:49;;;;;;;9.05;3.38;;;;;;;17.58;51.50;94949.63;5054694;28;20037;-78
2021/08/19 01:33:14;;;;;;;7.65;3.22;;;;;;;17.60;51.25;94952.00;5055065;28;20064;-78
2021/08/19 01:35:40;;;;;;;7.63;3.40;;;;;;;17.66;51.15;94953.53;5052895;28;20470;-78
2021/08/19 01:38:05;;;;;;;11.57;5.20;;;;;;;17.76;50.89;94944.84;5053535;28;20013;-77
2021/08/19 01:40:33;;;;;;;10.68;4.55;;;;;;;17.68;51.08;94952.22;5054016;28;20087;-78
2021/08/19 01:43:06;;;;;;;6.55;3.50;;;;;;;17.58;51.19;94956.75;5037225;28;20123;-78
2021/08/19 01:45:32;;;;;;;;;;;;;;;17.54;50.72;94945.16;5053850;28;20033;-78
2021/08/19 01:47:57;;;;;;;6.87;3.10;;;;;;;17.43;51.02;94938.41;5052720;28;19916;-78
2021/08/19 01:50:23;;;;;;;10.23;3.63;;;;;;;17.29;51.42;94946.88;5054143;28;20279;-78
2021/08/19 01:52:48;;;;;;;16.33;4.53;;;;;;;17.31;51.34;94951.88;5053987;28;20159;-78
2021/08/19 01:55:17;;;;;;;16.50;3.88;;;;;;;17.34;51.42;94952.13;5052774;28;20048;-78
2021/08/19 01:57:42;;;;;;;7.93;3.10;;;;;;;17.36;51.08;94944.75;5052378;28;20101;-78
2021/08/19 02:00:08;;;;;;;8.43;3.13;;;;;;;17.38;51.25;94942.63;5051545;28;20033;-78
2021/08/19 02:02:34;;;;;;;5.93;2.95;;;;;;;17.53;51.01;94944.38;5054321;28;20554;-78
2021/08/19 02:04:59;;;;;;;12.00;3.57;;;;;;;17.76;50.11;94948.25;5054287;28;20408;-78
2021/08/19 02:07:24;;;;;;;7.77;3.30;;;;;;;17.94;49.59;94944.97;5052914;28;20400;-78
2021/08/19 02:09:50;;;;;;;7.47;3.30;;;;;;;18.05;49.68;94950.13;5052469;28;20424;-78
2021/08/19 02:12:15;;;;;;;16.50;6.47;;;;;;;18.20;48.66;94944.75;5052978;28;20444;-76
2021/08/19 02:14:41;;;;;;;13.67;5.20;;;;;;;18.30;48.29;94942.03;5052673;28;20420;-77
2021/08/19 02:17:06;;;;;;;10.82;3.45;;;;;;;18.28;48.23;94944.97;5053616;28;20290;-77
2021/08/19 02:19:32;;;;;;;;;;;;;;;18.16;48.90;94946.38;5038946;28;20467;-77
2021/08/19 02:21:57;;;;;;;11.60;2.72;;;;;;;18.03;48.99;94947.78;5035025;28;20311;-77
2021/08/19 02:24:28;;;;;;;;;;;;;;;17.95;49.14;94946.53;5055091;28;20029;-77
2021/08/19 02:26:54;;;;;;;6.10;2.72;;;;;;;17.89;49.06;94942.34;5055829;28;20423;-77
2021/08/19 02:29:20;;;;;;;14.85;6.82;;;;;;;17.78;49.34;94940.88;5056166;28;20037;-76
2021/08/19 02:31:45;;;;;;;10.25;4.75;;;;;;;17.67;49.18;94945.38;5055779;28;20025;-77
2021/08/19 02:34:13;;;;;;;5.38;3.85;;;;;;;17.62;49.05;94942.78;5036548;28;20040;-77
2021/08/19 02:36:39;;;;;;;15.55;6.10;;;;;;;17.58;49.01;94941.75;5055389;28;20024;-77
2021/08/19 02:39:04;;;;;;;21.52;8.80;;;;;;;17.54;49.35;94934.66;5052826;28;20078;-77
2021/08/19 02:41:30;;;;;;;14.85;7.50;;;;;;;17.55;49.25;94947.53;5054065;28;20440;-77
2021/08/19 02:43:55;;;;;;;7.07;3.90;;;;;;;17.54;48.55;94945.16;5036195;28;20116;-78
2021/08/19 02:46:21;;;;;;;4.18;2.88;;;;;;;17.50;48.94;94944.94;5052708;28;20040;-77
2021/08/19 02:48:46;;;;;;;6.57;2.83;;;;;;;17.48;49.10;94943.63;5052664;28;20037;-76
2021/08/19 02:51:12;;;;;;;12.73;3.28;;;;;;;17.40;49.07;94948.41;5054066;28;20045;-77
2021/08/19 02:53:37;;;;;;;14.40;3.35;;;;;;;17.36;49.10;94944.75;5053350;28;20037;-77
2021/08/19 02:56:03;;;;;;;6.00;3.08;;;;;;;17.36;49.02;94954.47;5052721;28;20040;-77
2021/08/19 02:58:29;;;;;;;5.97;3.20;;;;;;;17.33;49.43;94966.31;5046866;22;20038;-76
2021/08/19 03:00:54;;;;;;;5.80;3.20;;;;;;;17.33;49.55;94961.06;5032113;28;20116;-77
2021/08/19 03:03:20;;;;;;;;;;;;;;;17.35;49.33;94968.66;5031758;28;20032;-78
2021/08/19 03:05:45;;;;;;;5.45;3.42;;;;;;;17.33;49.48;94965.53;5030159;28;19917;-77
2021/08/19 03:08:10;;;;;;;5.13;3.67;;;;;;;17.34;49.13;94961.84;5031373;28;20378;-78
2021/08/19 03:10:37;;;;;;;18.73;11.03;;;;;;;17.44;48.93;94976.78;5029697;28;20414;-77
2021/08/19 03:13:02;;;;;;;12.90;5.78;;;;;;;17.46;48.51;94972.03;5035839;22;20172;-78
2021/08/19 03:15:28;;;;;;;15.95;5.63;;;;;;;17.40;49.21;94976.53;5030686;28;20037;-78
2021/08/19 03:17:56;;;;;;;13.23;7.18;;;;;;;17.34;49.09;94977.63;5030602;28;20033;-78
2021/08/19 03:20:21;;;;;;;18.33;6.13;;;;;;;17.27;49.19;94983.16;5012952;28;20033;-78
2021/08/19 03:22:50;;;;;;;6.65;3.50;;;;;;;17.24;49.28;94983.69;5012904;28;20052;-78
2021/08/19 03:25:16;;;;;;;6.50;3.45;;;;;;;17.25;49.18;94982.66;4996774;28;20037;-77
2021/08/19 03:27:41;;;;;;;8.63;3.20;;;;;;;17.18;49.03;94984.00;5012593;28;20040;-77
2021/08/19 03:30:07;;;;;;;5.28;3.47;;;;;;;17.11;49.39;94984.28;5012879;28;20052;-77
2021/08/19 03:32:32;;;;;;;8.27;3.20;;;;;;;17.10;49.40;94987.97;4997070;28;20080;-79
2021/08/19 03:34:58;;;;;;;8.88;2.90;;;;;;;17.12;49.40;94987.69;5033327;28;20038;-79
2021/08/19 03:37:26;;;;;;;17.90;3.42;;;;;;;17.13;49.35;94986.63;5032605;28;20485;-78
2021/08/19 03:39:52;;;;;;;8.50;3.45;;;;;;;17.28;49.08;94981.31;5032869;28;20398;-78
2021/08/19 03:42:17;;;;;;;6.35;3.25;;;;;;;17.38;48.69;94984.69;5007837;28;20040;-77
2021/08/19 03:44:43;;;;;;;14.38;3.40;;;;;;;17.34;48.96;94988.91;5019802;28;20038;-78
2021/08/19 03:47:09;;;;;;;8.00;2.90;;;;;;;17.34;48.77;94988.91;5055517;28;20042;-79
2021/08/19 03:49:34;;;;;;;6.18;3.40;;;;;;;17.37;48.98;94993.63;5022321;28;20037;-78
2021/08/19 03:52:00;;;;;;;7.65;2.83;;;;;;;17.40;49.25;94993.09;5004436;23;20065;-78
2021/08/19 03:54:25;;;;;;;16.77;4.20;;;;;;;17.46;48.86;94990.44;5044196;23;20544;-79
2021/08/19 03:56:52;;;;;;;26.60;4.13;;;;;;;17.51;48.65;94988.56;5036747;28;20041;-79
2021/08/19 03:59:18;;;;;;;19.75;5.30;;;;;;;17.65;48.34;94986.16;5035378;28;20925;-79
2021/08/19 04:01:43;;;;;;;9.00;3.97;;;;;;;17.96;46.80;94986.78;5034603;28;20406;-79
2021/08/19 04:04:09;;;;;;;12.50;5.32;;;;;;;18.16;46.63;94986.63;5017937;28;20438;-79
2021/08/19 04:06:34;;;;;;;22.60;8.48;;;;;;;18.44;45.46;94987.72;5031940;28;20030;-78
2021/08/19 04:09:00;;;;;;;11.00;6.47;;;;;;;18.95;44.02;94992.56;5031372;28;20414;-78
2021/08/19 04:11:25;;;;;;;;;;;;;;;19.53;42.87;94989.78;5037144;28;20029;-78
2021/08/19 04:13:57;;;;;;;12.40;4.00;;;;;;;20.25;41.21;94985.09;5036954;28;19923;-78
2021/08/19 04:16:26;;;;;;;6.68;3.40;;;;;;;21.08;39.02;94994.00;5037004;28;20560;-79
2021/08/19 04:18:51;;;;;;;;;;;;;;;22.06;37.14;94991.78;5038258;28;20459;-79
2021/08/19 04:21:17;;;;;;;10.27;3.03;;;;;;;22.91;34.73;94989.25;5038473;28;19917;-78
2021/08/19 04:23:45;;;;;;;11.02;3.70;;;;;;;23.93;33.44;94995.97;5042897;22;20322;-79
2021/08/19 04:26:12;;;;;;;9.98;4.88;;;;;;;24.92;31.26;94996.06;5025639;28;20084;-79
2021/08/19 04:28:38;;;;;;;4.80;3.15;;;;;;;25.76;29.74;94993.69;5021981;28;20125;-79
2021/08/19 04:31:03;;;;;;;;;;;;;;;26.74;28.39;94995.72;5001071;28;20414;-79
2021/08/19 04:33:29;;;;;;;8.55;3.50;;;;;;;27.61;26.85;95000.06;5018453;28;20312;-79
2021/08/19 04:35:55;;;;;;;17.85;4.22;;;;;;;28.62;25.40;94995.41;5016227;28;20038;-79
2021/08/19 04:38:20;;;;;;;7.38;3.47;;;;;;;29.27;24.62;94993.25;5019049;28;20109;-79
2021/08/19 04:40:46;;;;;;;6.88;2.97;;;;;;;29.97;23.49;94992.59;4997537;28;20061;-79
2021/08/19 04:43:11;;;;;;;;;;;;;;;31.05;21.94;94986.25;5018084;28;20029;-79
2021/08/19 04:45:37;;;;;;;11.57;3.03;;;;;;;31.77;21.65;94992.81;5016250;28;20401;-78
2021/08/19 04:48:02;;;;;;;10.98;3.15;;;;;;;32.46;21.03;94990.66;5076341;22;20434;-79
2021/08/19 04:50:53;;;;;;;5.85;2.70;;;;;;;33.34;19.26;94990.81;5038247;28;20033;-76
2021/08/19 04:53:19;;;;;;;14.00;2.58;;;;;;;34.09;18.61;94995.97;5018127;28;20034;-79
2021/08/19 04:55:44;;;;;;;11.25;2.53;;;;;;;34.80;18.05;94993.53;5015212;28;20173;-80
2021/08/19 04:58:10;;;;;;;11.30;2.40;;;;;;;35.60;17.60;94988.63;5009842;28;20583;-77
2021/08/19 05:00:37;;;;;;;7.70;3.15;;;;;;;36.12;17.18;94994.34;5014463;28;20038;-78
2021/08/19 05:03:03;;;;;;;11.85;2.65;;;;;;;37.08;16.11;94993.94;5017974;28;20093;-79
2021/08/19 05:05:28;;;;;;;10.98;2.50;;;;;;;37.85;15.05;94996.47;4998668;28;20033;-79
2021/08/19 05:07:53;;;;;;;;;;;;;;;38.39;14.60;95004.84;5013919;28;20054;-79
2021/08/19 05:10:19;;;;;;;6.40;2.53;;;;;;;38.93;13.79;94999.53;5018396;28;19918;-80
2021/08/19 05:12:44;;;;;;;11.43;6.22;;;;;;;39.35;13.52;95009.00;5017594;28;20058;-79
2021/08/19 05:15:10;;;;;;;10.10;2.17;;;;;;;40.01;12.91;95000.16;5017989;28;20044;-79
2021/08/19 05:17:36;;;;;;;10.90;2.67;;;;;;;40.11;12.86;95001.16;5013599;28;20637;-80
2021/08/19 05:20:01;;;;;;;9.45;2.50;;;;;;;41.19;12.50;95003.25;5018334;28;20041;-80
2021/08/19 05:22:27;;;;;;;6.68;2.00;;;;;;;41.70;11.52;95003.63;5048725;22;20049;-80
2021/08/19 05:24:52;;;;;;;4.32;2.38;;;;;;;42.31;11.04;95008.25;5038138;28;20033;-80
2021/08/19 05:27:18;;;;;;;9.80;2.00;;;;;;;42.70;10.75;94991.53;5037671;28;20029;-79
2021/08/19 05:29:43;;;;;;;3.50;2.38;;;;;;;42.56;11.25;94997.44;5035673;28;20043;-77
2021/08/19 05:32:09;;;;;;;4.93;2.40;;;;;;;42.74;10.77;95008.59;5016470;28;20493;-80
2021/08/19 05:34:34;;;;;;;11.40;2.78;;;;;;;43.04;10.77;95015.56;5037749;28;20031;-80
2021/08/19 05:37:00;;;;;;;4.35;2.70;;;;;;;43.61;10.66;95022.00;5036114;28;20063;-79
2021/08/19 05:39:25;;;;;;;10.13;2.60;;;;;;;44.09;10.29;95013.75;5036505;28;20075;-80
2021/08/19 05:41:50;;;;;;;13.02;3.10;;;;;;;44.19;9.83;95005.19;5037042;28;20041;-80
2021/08/19 05:44:16;;;;;;;11.77;2.58;;;;;;;43.75;10.36;95009.81;5016413;28;20520;-77
2021/08/19 05:46:41;;;;;;;7.43;2.25;;;;;;;44.63;9.80;95007.19;5034216;28;20143;-78
2021/08/19 05:49:08;;;;;;;7.32;2.60;;;;;;;44.95;9.74;95001.28;5036526;28;20033;-79
2021/08/19 05:51:36;;;;;;;9.98;3.92;;;;;;;45.37;9.30;95003.59;5035291;28;20040;-78
2021/08/19 05:54:02;;;;;;;6.95;2.45;;;;;;;45.35;9.72;95001.28;5034428;28;20025;-78
2021/08/19 05:58:55;;;;;;;10.05;2.33;;;;;;;46.50;8.75;95008.28;5055003;28;20071;-80
2021/08/19 06:01:20;;;;;;;5.30;2.65;;;;;;;46.47;8.57;95006.47;5056680;28;20037;-80
2021/08/19 06:03:46;;;;;;;2.97;2.13;;;;;;;46.57;8.46;95007.97;5056497;28;20033;-79
2021/08/19 06:06:16;;;;;;;4.85;2.33;;;;;;;46.82;8.32;95002.13;5055890;28;20044;-80
2021/08/19 06:08:41;;;;;;;22.55;2.60;;;;;;;46.20;8.36;95005.25;5040251;28;20123;-79
2021/08/19 06:11:07;;;;;;;10.90;2.70;;;;;;;45.66;8.98;94998.47;5038492;28;20535;-79
2021/08/19 06:13:32;;;;;;;17.70;3.17;;;;;;;45.40;9.18;94999.91;5058365;28;20044;-80
2021/08/19 06:15:58;;;;;;;13.93;2.42;;;;;;;45.15;9.32;95000.91;5057818;28;20040;-80
2021/08/19 06:18:23;;;;;;;2.67;2.20;;;;;;;44.28;10.27;94997.06;5039113;28;20071;-80
2021/08/19 06:20:49;;;;;;;5.85;2.30;;;;;;;43.33;10.58;94996.31;5058606;28;20538;-79
2021/08/19 06:23:14;;;;;;;7.90;2.55;;;;;;;41.86;11.62;94995.41;5026250;28;20044;-78
2021/08/19 06:25:40;;;;;;;3.55;2.25;;;;;;;41.09;12.55;94999.56;5042435;28;20047;-79
2021/08/19 06:28:06;;;;;;;7.47;2.42;;;;;;;40.29;12.65;94987.94;5009588;28;20477;-78
2021/08/19 06:30:34;;;;;;;3.67;2.78;;;;;;;39.57;13.35;94995.88;5026126;28;20029;-80
2021/08/19 06:33:00;;;;;;;5.57;2.35;;;;;;;38.88;13.76;94992.56;5057828;28;20037;-80
2021/08/19 06:35:26;;;;;;;3.20;2.42;;;;;;;38.27;14.49;94980.94;5057438;28;20033;-80
2021/08/19 06:37:55;;;;;;;7.60;2.65;;;;;;;37.58;14.89;94979.25;5056005;28;20033;-80
2021/08/19 06:40:20;;;;;;;3.88;2.67;;;;;;;36.63;15.85;94979.50;5056482;28;20033;-79
2021/08/19 06:43:11;;;;;;;11.38;2.67;;;;;;;35.86;16.36;94979.34;5056412;28;20036;-80
2021/08/19 06:45:36;;;;;;;4.90;2.67;;;;;;;35.03;17.21;94983.22;5056433;28;20040;-80
2021/08/19 06:48:02;;;;;;;5.80;2.33;;;;;;;34.48;17.86;94980.72;5056560;28;20511;-80
2021/08/19 06:50:28;;;;;;;6.65;2.85;;;;;;;33.82;18.16;94977.28;5021546;28;20100;-79
2021/08/19 06:52:53;;;;;;;5.75;2.60;;;;;;;33.01;18.65;94982.78;5038879;28;20029;-81
2021/08/19 06:55:18;;;;;;;5.75;2.97;;;;;;;32.55;19.87;94977.72;5039126;28;20032;-81
2021/08/19 06:57:44;;;;;;;2.30;1.90;;;;;;;32.28;19.50;94973.53;5058290;28;20052;-81
2021/08/19 07:00:10;;;;;;;5.18;2.40;;;;;;;31.89;20.40;94969.19;5056600;28;20037;-80
2021/08/19 07:02:37;;;;;;;3.22;2.28;;;;;;;31.79;20.55;94977.09;5038285;28;20063;-81
2021/08/19 07:05:03;;;;;;;3.85;2.60;;;;;;;31.57;20.85;94968.72;5056954;28;20033;-80
2021/08/19 07:07:28;;;;;;;6.07;2.38;;;;;;;31.51;21.09;94980.13;5056022;28;20028;-80
2021/08/19 07:09:56;;;;;;;6.22;2.30;;;;;;;31.49;21.07;94972.41;5056352;28;20516;-80
2021/08/19 07:12:25;;;;;;;10.23;2.50;;;;;;;31.54;21.17;94974.00;5036457;28;20024;-80
2021/08/19 07:14:51;;;;;;;8.77;2.38;;;;;;;31.15;21.11;94974.16;5052749;28;20127;-81
2021/08/19 07:17:16;;;;;;;4.82;2.30;;;;;;;30.85;21.33;94965.97;5055084;28;20033;-80
2021/08/19 07:19:42;;;;;;;5.38;2.28;;;;;;;30.83;21.95;94962.88;5037299;28;20500;-80
2021/08/19 07:22:08;;;;;;;4.28;2.33;;;;;;;30.77;21.62;94973.13;5037249;28;20493;-80
2021/08/19 07:24:34;;;;;;;3.15;2.28;;;;;;;30.71;21.86;94971.09;5019344;28;20037;-80
2021/08/19 07:26:59;;;;;;;7.45;2.63;;;;;;;30.70;21.86;94972.22;5055524;28;20487;-80
2021/08/19 07:29:25;;;;;;;16.45;2.53;;;;;;;30.74;22.05;94975.72;5055586;28;20029;-80
2021/08/19 07:34:23;;;;;;;3.10;2.45;;;;;;;30.67;21.85;94976.41;5042778;22;20045;-80
2021/08/19 07:36:48;;;;;;;4.32;2.17;;;;;;;30.66;21.53;94976.75;5035623;28;20038;-80
2021/08/19 07:39:15;;;;;;;3.97;2.53;;;;;;;30.60;21.45;94980.84;5035000;28;20033;-80
2021/08/19 07:41:41;;;;;;;6.93;2.50;;;;;;;30.55;21.68;94983.78;5017565;28;20037;-80
2021/08/19 07:44:06;;;;;;;3.42;2.33;;;;;;;30.40;21.96;94977.38;5032202;28;20040;-79
2021/08/19 07:46:35;;;;;;;5.25;2.20;;;;;;;30.18;22.13;94971.59;5035661;28;20103;-80
2021/08/19 07:49:02;;;;;;;7.40;2.20;;;;;;;30.06;22.42;94966.34;5033857;28;20033;-80
2021/08/19 07:51:28;;;;;;;4.82;2.15;;;;;;;29.80;22.28;94966.94;5018142;28;20064;-80
2021/08/19 07:53:53;;;;;;;3.30;2.22;;;;;;;29.84;22.97;94973.16;5029036;28;20037;-80
2021/08/19 07:56:19;;;;;;;4.95;2.20;;;;;;;29.86;22.73;94976.25;5051168;22;20045;-78
2021/08/19 07:58:44;;;;;;;2.25;2.00;;;;;;;29.69;22.69;94965.94;5044317;28;20045;-80
2021/08/19 08:01:10;;;;;;;4.68;2.92;;;;;;;29.56;23.25;94967.94;5035832;28;20477;-80
2021/08/19 08:03:35;;;;;;;12.02;2.75;;;;;;;29.63;23.29;94953.94;5039465;22;20057;-80
2021/08/19 08:06:01;;;;;;;6.85;2.47;;;;;;;29.62;23.25;94957.75;5034928;28;20107;-80
2021/08/19 08:08:26;;;;;;;4.13;2.50;;;;;;;29.38;23.32;94950.66;5034954;28;20037;-80
2021/08/19 08:10:52;;;;;;;14.38;2.50;;;;;;;29.25;23.68;94962.59;5017730;28;20041;-80
2021/08/19 08:13:17;;;;;;;5.03;2.05;;;;;;;29.32;23.87;94951.28;5017143;28;20112;-80
2021/08/19 08:15:43;;;;;;;6.93;2.38;;;;;;;29.42;24.11;94956.88;5034243;28;20033;-80
2021/08/19 08:18:13;;;;;;;3.55;2.40;;;;;;;29.25;23.93;94951.88;5040286;22;20406;-80
2021/08/19 08:21:04;;;;;;;4.72;2.13;;;;;;;29.15;23.99;94957.78;5035153;28;20029;-80
2021/08/19 08:23:33;;;;;;;4.05;2.30;;;;;;;29.12;23.78;94947.72;5034912;28;20551;-80
2021/08/19 08:25:59;;;;;;;3.10;2.08;;;;;;;28.94;24.21;94942.72;5035678;28;20029;-80
2021/08/19 08:28:30;;;;;;;5.78;2.55;;;;;;;28.69;24.51;94941.31;5015625;28;20052;-80
2021/08/19 08:30:56;;;;;;;6.22;3.47;;;;;;;28.67;24.37;94944.31;5038746;28;20052;-80
2021/08/19 08:33:22;;;;;;;11.95;2.83;;;;;;;28.60;24.29;94946.81;5042419;22;20166;-80
2021/08/19 08:35:47;;;;;;;3.90;2.50;;;;;;;28.43;24.05;94933.75;5049145;22;20045;-80
2021/08/19 08:38:14;;;;;;;4.97;2.15;;;;;;;28.28;23.69;94931.81;5018167;28;20049;-79
2021/08/19 08:40:42;;;;;;;3.20;2.22;;;;;;;28.25;25.05;94932.47;5001168;28;20030;-80
2021/08/19 08:43:07;;;;;;;8.32;2.55;;;;;;;28.34;24.74;94930.47;4985095;28;20045;-79
2021/08/19 08:45:36;;;;;;;3.50;2.67;;;;;;;28.35;23.77;94926.66;5018272;28;20045;-79
2021/08/19 08:48:03;;;;;;;3.95;2.15;;;;;;;28.37;24.46;94935.13;5014858;28;20073;-80
2021/08/19 08:50:28;;;;;;;5.35;2.47;;;;;;;28.32;24.30;94922.00;5017895;28;20042;-79
2021/08/19 08:52:54;;;;;;;6.22;2.13;;;;;;;28.23;23.47;94919.44;5018454;28;20040;-79
2021/08/19 08:55:19;;;;;;;11.32;2.10;;;;;;;28.15;22.97;94927.59;5001792;28;20176;-80
2021/08/19 08:57:46;;;;;;;2.58;1.70;;;;;;;28.14;22.94;94928.72;5000748;28;20022;-80
2021/08/19 09:00:12;;;;;;;2.60;1.95;;;;;;;28.04;24.80;94922.75;5004139;28;20042;-80
2021/08/19 09:02:37;;;;;;;15.32;2.88;;;;;;;27.97;25.46;94917.19;4970780;28;20026;-79
2021/08/19 09:05:19;;;;;;;7.40;2.65;;;;;;;27.97;24.95;94914.50;5020739;28;20056;-80
2021/08/19 09:07:55;;;;;;;;;;;;;;;27.87;24.76;94912.34;5020521;28;20042;-80
2021/08/19 09:10:22;;;;;;;4.72;2.45;;;;;;;27.69;25.04;94905.72;5019067;23;19920;-79
2021/08/19 09:12:48;;;;;;;4.07;2.50;;;;;;;27.58;24.76;94907.25;5078196;28;20029;-80
2021/08/19 09:15:15;;;;;;;4.78;2.28;;;;;;;27.53;24.48;94902.94;5076941;28;20647;-80
2021/08/19 09:17:52;;;;;;;3.50;2.15;;;;;;;27.38;24.20;94901.72;5078478;28;20058;-79
2021/08/19 09:20:20;;;;;;;2.90;2.15;;;;;;;27.22;24.74;94908.84;5060678;28;20032;-80
2021/08/19 09:22:56;;;;;;;3.95;2.20;;;;;;;27.27;25.15;94902.50;5059568;28;20085;-80
2021/08/19 09:25:38;;;;;;;10.52;2.50;;;;;;;27.30;24.72;94897.25;5058242;28;20048;-80
2021/08/19 09:28:07;;;;;;;;;;;;;;;27.28;24.41;94898.72;5076773;28;20029;-80
2021/08/19 09:30:32;;;;;;;2.25;2.00;;;;;;;27.07;24.04;94896.19;5077089;28;19920;-80
2021/08/19 09:32:58;;;;;;;11.30;2.33;;;;;;;26.87;24.65;94892.47;5057810;28;20035;-80
2021/08/19 09:35:26;;;;;;;17.50;2.30;;;;;;;26.82;25.13;94890.78;5076721;28;20442;-80
2021/08/19 09:37:52;;;;;;;5.43;2.05;;;;;;;26.89;25.53;94880.34;5076382;28;20036;-80
2021/08/19 09:40:17;;;;;;;6.15;2.05;;;;;;;26.95;25.32;94877.47;5058785;28;20035;-79
2021/08/19 09:42:43;;;;;;;3.20;2.05;;;;;;;26.89;24.78;94876.91;5057092;22;20037;-80
2021/08/19 09:45:21;;;;;;;3.50;2.47;;;;;;;26.90;25.55;94876.56;5037162;28;20038;-79
2021/08/19 09:47:47;;;;;;;5.60;2.38;;;;;;;26.95;24.04;94874.78;5037319;28;20592;-80
2021/08/19 09:50:17;;;;;;;7.55;3.00;;;;;;;26.99;24.82;94873.00;5036263;28;20060;-80
2021/08/19 09:52:43;;;;;;;3.00;2.35;;;;;;;26.88;23.93;94872.69;5036576;28;20033;-80
2021/08/19 09:55:23;;;;;;;5.93;2.30;;;;;;;26.45;24.17;94870.53;5019864;28;20060;-80
2021/08/19 09:57:49;;;;;;;4.25;2.67;;;;;;;26.10;24.51;94860.19;5036349;28;20085;-80
2021/08/19 10:00:27;;;;;;;2.95;1.95;;;;;;;26.06;24.94;94859.28;5035946;28;20563;-80
2021/08/19 10:02:53;;;;;;;3.35;2.15;;;;;;;26.19;25.09;94852.09;5035842;28;20103;-79
2021/08/19 10:05:18;;;;;;;3.63;2.25;;;;;;;26.32;25.32;94851.03;5040529;22;20161;-80
2021/08/19 10:07:44;;;;;;;6.95;1.95;;;;;;;26.42;24.53;94847.19;5020244;28;20053;-79
2021/08/19 10:10:10;;;;;;;4.13;2.40;;;;;;;26.53;24.84;94843.00;5037569;28;20033;-79
2021/08/19 10:12:41;;;;;;;4.55;2.20;;;;;;;26.69;24.71;94848.47;5037054;28;20038;-80
2021/08/19 10:15:07;;;;;;;8.95;2.70;;;;;;;26.76;24.73;94844.09;5019016;28;20398;-80
2021/08/19 10:17:33;;;;;;;9.45;2.60;;;;;;;26.77;24.29;94845.66;5019158;28;20064;-80
2021/08/19 10:19:58;;;;;;;10.18;2.35;;;;;;;26.84;24.68;94835.19;4986650;28;20059;-79
2021/08/19 10:22:24;;;;;;;2.50;2.30;;;;;;;26.90;23.71;94841.88;5002270;28;20025;-80
2021/08/19 10:24:51;;;;;;;5.75;2.15;;;;;;;26.97;24.24;94829.88;5090775;23;20037;-79
2021/08/19 10:29:59;;;;;;;7.72;2.08;;;;;;;26.97;23.29;94824.53;5044187;22;20517;-79
2021/08/19 10:32:38;;;;;;;3.58;2.17;;;;;;;26.96;23.29;94822.97;5036247;28;20067;-79
2021/08/19 10:35:12;;;;;;;5.53;1.90;;;;;;;27.00;21.49;94826.53;5035561;28;20034;-80
2021/08/19 10:37:49;;;;;;;3.58;1.77;;;;;;;27.00;21.83;94818.50;5035019;28;20036;-79
2021/08/19 10:40:24;;;;;;;8.07;2.53;;;;;;;27.04;22.89;94811.44;5034886;28;20117;-79
2021/08/19 10:43:00;;;;;;;5.32;2.17;;;;;;;27.11;22.36;94822.31;5036010;28;20041;-79
2021/08/19 10:45:29;;;;;;;3.28;2.42;;;;;;;26.85;22.37;94814.66;5036199;28;20033;-79
2021/08/19 10:47:55;;;;;;;5.90;2.50;;;;;;;26.70;23.15;94823.34;5034522;28;20041;-80
2021/08/19 10:50:46;;;;;;;6.25;2.30;;;;;;;26.67;23.79;94822.09;5034537;28;20121;-79
2021/08/19 10:53:13;;;;;;;9.25;2.30;;;;;;;26.71;23.58;94816.88;5036477;28;20634;-79
2021/08/19 10:55:49;;;;;;;5.57;1.95;;;;;;;26.78;23.17;94815.19;5022893;22;20464;-79
2021/08/19 10:58:21;;;;;;;3.33;1.88;;;;;;;26.57;21.67;94814.53;5031933;28;20045;-79
2021/08/19 11:00:46;;;;;;;4.40;2.55;;;;;;;26.21;21.97;94818.69;5036156;28;20056;-79
2021/08/19 11:03:44;;;;;;;2.58;2.20;;;;;;;26.09;22.40;94809.88;5041330;22;20501;-79
2021/08/19 11:06:11;;;;;;;3.08;1.88;;;;;;;26.19;22.36;94809.44;5075584;22;20048;-79
2021/08/19 11:08:46;;;;;;;2.50;1.58;;;;;;;26.30;20.92;94811.38;5035958;28;20446;-78
2021/08/19 11:11:34;;;;;;;1.67;1.58;;;;;;;26.43;19.79;94803.41;5040555;22;20123;-77
2021/08/19 11:14:13;;;;;;;3.30;2.17;;;;;;;26.53;19.95;94803.00;5057085;22;20037;-79
2021/08/19 11:17:10;;;;;;;3.05;1.77;;;;;;;26.58;20.97;94802.75;5039815;22;20055;31
2021/08/19 11:19:36;;;;;;;2.65;1.95;;;;;;;26.52;21.44;94798.75;5014372;28;20038;-79
2021/08/19 11:22:07;;;;;;;4.22;2.47;;;;;;;26.59;22.67;94801.66;5047552;22;20045;-79
2021/08/19 11:24:33;;;;;;;4.78;2.88;;;;;;;26.60;22.80;94798.66;5055024;28;20029;-79
2021/08/19 11:27:09;;;;;;;2.70;2.25;;;;;;;26.65;22.69;94800.31;5076588;22;20041;-79
2021/08/19 11:29:43;;;;;;;3.50;2.17;;;;;;;26.69;22.56;94787.88;5055607;28;20037;-79
2021/08/19 11:32:13;;;;;;;5.55;2.00;;;;;;;26.78;23.44;94785.06;5055639;28;20062;-79
2021/08/19 11:34:45;;;;;;;2.90;1.77;;;;;;;26.75;23.38;94783.88;5021493;28;20116;-79
2021/08/19 11:37:11;;;;;;;4.95;2.30;;;;;;;26.76;22.79;94790.75;5005310;28;20135;-79
2021/08/19 11:39:36;;;;;;;4.57;1.80;;;;;;;26.79;23.21;94790.06;5042429;22;20121;-79
2021/08/19 11:42:06;;;;;;;5.63;2.00;;;;;;;26.79;22.17;94787.41;5055434;28;20048;-79